Time;durP1;ratioP1;P1;durP2;ratioP2;P2;SDS_P1;SDS_P2;PMS_P1;PMS_P2;Temp;Humidity;BMP_temperature;BMP_pressure;BME280_temperature;BME280_humidity;BME280_pressure;Samples;Min_cycle;Max_cycle;Signal;HPM_P1;HPM_P2
2022/07/02 00:01:36;;;;;;;54.80;2.20;;;;;;;;;;5025991;28;20182;-45
2022/07/02 00:04:04;;;;;;;19.13;1.10;;;;;;;;;;5026006;28;20478;-48
2022/07/02 00:06:31;;;;;;;6.57;1.50;;;;;;;;;;5026917;28;20038;-45
2022/07/02 00:08:59;;;;;;;47.63;2.88;;;;;;;;;;5025629;28;20033;-49
2022/07/02 00:11:26;;;;;;;38.88;2.90;;;;;;;;;;5047307;28;20112;-45
2022/07/02 00:13:52;;;;;;;7.60;1.38;;;;;;;;;;5024968;28;20029;-46
2022/07/02 00:16:18;;;;;;;4.13;0.98;;;;;;;;;;5026670;28;20112;-43
2022/07/02 00:18:44;;;;;;;6.85;1.40;;;;;;;;;;5028171;28;20124;-44
2022/07/02 00:21:10;;;;;;;3.60;0.73;;;;;;;;;;5025760;28;20029;-47
2022/07/02 00:23:36;;;;;;;2.13;0.70;;;;;;;;;;5025949;28;20172;-45
2022/07/02 00:26:07;;;;;;;0.75;0.55;;;;;;;;;;5025845;28;20065;-45
2022/07/02 00:28:37;;;;;;;2.38;0.80;;;;;;;;;;5027074;28;20029;-47
2022/07/02 00:31:02;;;;;;;2.35;0.85;;;;;;;;;;5026936;28;20025;-48
2022/07/02 00:33:32;;;;;;;1.40;0.70;;;;;;;;;;5027912;28;20560;-44
2022/07/02 00:35:58;;;;;;;3.63;0.52;;;;;;;;;;5025917;28;20030;-45
2022/07/02 00:38:24;;;;;;;4.65;0.65;;;;;;;;;;5025358;28;20060;-44
2022/07/02 00:40:51;;;;;;;5.93;1.38;;;;;;;;;;5024286;28;20104;-49
2022/07/02 00:43:18;;;;;;;2.85;0.77;;;;;;;;;;5025499;28;20034;-43
2022/07/02 00:45:44;;;;;;;1.45;0.70;;;;;;;;;;5027218;28;20474;-43
2022/07/02 00:48:12;;;;;;;1.55;0.77;;;;;;;;;;5025053;28;20146;-46
2022/07/02 00:50:38;;;;;;;3.15;1.17;;;;;;;;;;5026584;28;20056;-48
2022/07/02 00:53:04;;;;;;;2.22;1.30;;;;;;;;;;5022555;28;20115;-48
2022/07/02 00:55:29;;;;;;;1.90;1.20;;;;;;;;;;5025426;28;20036;-49
2022/07/02 00:57:57;;;;;;;1.58;1.10;;;;;;;;;;5025803;28;20037;-46
2022/07/02 01:00:22;;;;;;;1.92;1.00;;;;;;;;;;5025843;28;20037;-46
2022/07/02 01:02:49;;;;;;;2.15;0.98;;;;;;;;;;5025300;28;20028;-45
2022/07/02 01:05:19;;;;;;;1.27;0.85;;;;;;;;;;5023736;28;20095;-46
2022/07/02 01:10:49;;;;;;;1.20;0.57;;;;;;;;;;5024924;28;20033;-47
2022/07/02 01:13:17;;;;;;;1.33;0.80;;;;;;;;;;5024945;28;20025;-46
2022/07/02 01:15:43;;;;;;;5.00;1.20;;;;;;;;;;5029173;28;20416;-44
2022/07/02 01:18:10;;;;;;;1.30;0.63;;;;;;;;;;5025034;28;20026;-44
2022/07/02 01:20:36;;;;;;;1.20;0.65;;;;;;;;;;5024407;28;20388;-46
2022/07/02 01:23:03;;;;;;;0.95;0.90;;;;;;;;;;5023181;28;20029;-44
2022/07/02 01:25:28;;;;;;;2.40;0.60;;;;;;;;;;5024821;28;20033;-44
2022/07/02 01:27:54;;;;;;;1.00;0.50;;;;;;;;;;5025713;28;20031;-47
2022/07/02 01:30:19;;;;;;;1.35;0.73;;;;;;;;;;5026352;28;20052;-48
2022/07/02 01:32:45;;;;;;;1.77;0.80;;;;;;;;;;5022872;28;20040;-45
2022/07/02 01:35:11;;;;;;;2.58;0.80;;;;;;;;;;5025799;28;20022;-44
2022/07/02 01:37:38;;;;;;;2.30;0.82;;;;;;;;;;5026687;28;20044;-46
2022/07/02 01:40:06;;;;;;;0.85;0.80;;;;;;;;;;5025250;28;20029;-47
2022/07/02 01:42:31;;;;;;;3.60;0.90;;;;;;;;;;5024089;28;20461;-44
2022/07/02 01:44:57;;;;;;;2.50;1.00;;;;;;;;;;5023866;28;20073;-46
2022/07/02 01:47:23;;;;;;;1.60;0.98;;;;;;;;;;5024632;28;20390;-47
2022/07/02 01:49:48;;;;;;;1.13;0.85;;;;;;;;;;5023328;28;20536;-49
2022/07/02 01:52:15;;;;;;;2.30;1.02;;;;;;;;;;5023677;28;20113;-44
2022/07/02 01:54:41;;;;;;;1.85;1.00;;;;;;;;;;5027543;28;20171;-45
2022/07/02 01:57:07;;;;;;;2.75;1.40;;;;;;;;;;5025466;28;20141;-43
2022/07/02 01:59:34;;;;;;;3.78;1.17;;;;;;;;;;5020740;28;20079;-44
2022/07/02 02:02:04;;;;;;;3.83;1.00;;;;;;;;;;5038867;28;20037;-44
2022/07/02 02:04:30;;;;;;;4.20;0.75;;;;;;;;;;5023907;28;20049;-45
2022/07/02 02:06:55;;;;;;;2.08;0.88;;;;;;;;;;5022275;28;20052;-44
2022/07/02 02:09:23;;;;;;;1.33;0.80;;;;;;;;;;5023677;28;20042;-45
2022/07/02 02:11:48;;;;;;;1.23;0.80;;;;;;;;;;5023544;28;20026;-47
2022/07/02 02:14:14;;;;;;;2.67;0.77;;;;;;;;;;5023559;28;20025;-43
2022/07/02 02:16:40;;;;;;;3.20;0.80;;;;;;;;;;5026056;28;20550;-44
2022/07/02 02:19:07;;;;;;;3.13;0.70;;;;;;;;;;5025033;28;20056;-47
2022/07/02 02:21:33;;;;;;;0.80;0.73;;;;;;;;;;5024826;28;20211;-47
2022/07/02 02:23:59;;;;;;;3.72;1.00;;;;;;;;;;5025941;28;20448;-44
2022/07/02 02:26:25;;;;;;;1.45;1.05;;;;;;;;;;5024995;28;20029;-46
2022/07/02 02:28:52;;;;;;;4.47;1.73;;;;;;;;;;5024487;28;20482;-47
2022/07/02 02:31:18;;;;;;;0.70;0.70;;;;;;;;;;5024340;28;20068;-44
2022/07/02 02:33:43;;;;;;;1.50;0.80;;;;;;;;;;5026032;28;20530;-45
2022/07/02 02:36:09;;;;;;;1.77;1.10;;;;;;;;;;5025179;28;20470;-46
2022/07/02 02:38:36;;;;;;;2.88;1.05;;;;;;;;;;5023222;28;20033;-45
2022/07/02 02:41:06;;;;;;;0.93;0.73;;;;;;;;;;5023225;28;20033;-51
2022/07/02 02:43:33;;;;;;;2.05;1.83;;;;;;;;;;5027746;28;20033;-47
2022/07/02 02:45:59;;;;;;;2.30;0.80;;;;;;;;;;5028713;28;20030;-45
2022/07/02 02:48:25;;;;;;;5.45;1.10;;;;;;;;;;5030685;28;20489;-46
2022/07/02 02:50:51;;;;;;;2.15;0.80;;;;;;;;;;5027095;28;20029;-46
2022/07/02 02:53:17;;;;;;;3.25;1.55;;;;;;;;;;5029107;28;20026;-43
2022/07/02 02:55:42;;;;;;;2.35;0.80;;;;;;;;;;5026874;28;20482;-43
2022/07/02 02:58:08;;;;;;;2.40;0.77;;;;;;;;;;5026837;28;20064;-47
2022/07/02 03:00:34;;;;;;;1.90;0.80;;;;;;;;;;5027366;28;20028;-44
2022/07/02 03:03:00;;;;;;;3.00;0.90;;;;;;;;;;5026552;28;20040;-44
2022/07/02 03:05:26;;;;;;;1.25;0.95;;;;;;;;;;5025996;28;20593;-43
2022/07/02 03:07:51;;;;;;;4.80;1.17;;;;;;;;;;5026841;28;20108;-43
2022/07/02 03:10:17;;;;;;;1.05;0.82;;;;;;;;;;5026133;28;20061;-45
2022/07/02 03:12:43;;;;;;;1.48;0.70;;;;;;;;;;5030395;28;20470;-45
2022/07/02 03:15:09;;;;;;;1.13;0.90;;;;;;;;;;5028459;28;20037;-47
2022/07/02 03:17:34;;;;;;;2.53;0.80;;;;;;;;;;5027041;28;20030;-45
2022/07/02 03:20:00;;;;;;;1.17;0.77;;;;;;;;;;5026794;28;20110;-47
2022/07/02 03:22:27;;;;;;;1.38;0.82;;;;;;;;;;5024491;28;20476;-45
2022/07/02 03:24:52;;;;;;;1.00;0.60;;;;;;;;;;5028441;28;20112;-44
2022/07/02 03:27:18;;;;;;;0.80;0.80;;;;;;;;;;5028210;28;20041;-49
2022/07/02 03:29:43;;;;;;;0.60;0.60;;;;;;;;;;5025972;28;20159;-43
2022/07/02 03:32:09;;;;;;;1.90;1.02;;;;;;;;;;5028392;28;20052;-44
2022/07/02 03:34:35;;;;;;;1.38;0.77;;;;;;;;;;5025229;28;20041;-44
2022/07/02 03:37:00;;;;;;;1.05;0.60;;;;;;;;;;5027464;28;20030;-45
2022/07/02 03:39:26;;;;;;;2.15;1.13;;;;;;;;;;5027946;28;20059;-48
2022/07/02 03:41:51;;;;;;;4.07;1.65;;;;;;;;;;5027521;28;20071;-47
2022/07/02 03:44:17;;;;;;;2.05;1.02;;;;;;;;;;5027475;28;20096;-50
2022/07/02 03:46:43;;;;;;;2.40;0.80;;;;;;;;;;5026219;28;20045;-50
2022/07/02 03:49:08;;;;;;;1.65;0.73;;;;;;;;;;5025673;28;20104;-46
2022/07/02 03:51:34;;;;;;;3.03;0.70;;;;;;;;;;5029299;28;20037;-52
2022/07/02 03:53:59;;;;;;;7.97;1.27;;;;;;;;;;5025833;28;20037;-46
2022/07/02 03:56:25;;;;;;;5.10;0.95;;;;;;;;;;5026775;28;20595;-46
2022/07/02 03:58:51;;;;;;;0.80;0.80;;;;;;;;;;5026671;28;20037;-44
2022/07/02 04:01:17;;;;;;;1.25;0.60;;;;;;;;;;5026003;28;20510;-45
2022/07/02 04:03:42;;;;;;;16.10;1.00;;;;;;;;;;5025333;28;20029;-44
2022/07/02 04:06:08;;;;;;;1.50;0.85;;;;;;;;;;5026015;28;20045;-46
2022/07/02 04:08:33;;;;;;;1.17;0.95;;;;;;;;;;5026226;28;20124;-50
2022/07/02 04:10:59;;;;;;;1.65;1.10;;;;;;;;;;5026664;28;20048;-45
2022/07/02 04:13:25;;;;;;;3.00;0.68;;;;;;;;;;5025621;28;20041;-44
2022/07/02 04:16:11;;;;;;;1.98;0.63;;;;;;;;;;5023358;28;20034;-45
2022/07/02 04:18:56;;;;;;;9.63;0.82;;;;;;;;;;5026899;28;20801;-46
2022/07/02 04:21:42;;;;;;;3.28;1.05;;;;;;;;;;5028766;28;20357;-47
2022/07/02 04:24:29;;;;;;;0.90;0.90;;;;;;;;;;5028516;28;21053;-44
2022/07/02 04:27:14;;;;;;;2.25;1.35;;;;;;;;;;5026813;28;20057;-44
2022/07/02 04:30:00;;;;;;;2.55;1.20;;;;;;;;;;5027108;28;20172;-44
2022/07/02 04:32:45;;;;;;;1.65;1.00;;;;;;;;;;5024015;28;20045;-47
2022/07/02 04:35:30;;;;;;;1.88;1.13;;;;;;;;;;5025621;28;20043;-44
2022/07/02 04:38:14;;;;;;;0.95;0.82;;;;;;;;;;5024128;28;20068;-44
2022/07/02 04:40:58;;;;;;;1.42;1.20;;;;;;;;;;5027148;28;20134;-44
2022/07/02 04:43:42;;;;;;;2.85;1.13;;;;;;;;;;5025205;28;20045;-52
2022/07/02 04:46:26;;;;;;;4.68;0.85;;;;;;;;;;5025514;28;20048;-47
2022/07/02 04:49:10;;;;;;;0.95;0.95;;;;;;;;;;5025905;28;20056;-43
2022/07/02 04:51:45;;;;;;;2.20;1.65;;;;;;;;;;5024860;28;20259;-43
2022/07/02 04:54:10;;;;;;;2.15;1.42;;;;;;;;;;5026438;28;20045;-48
2022/07/02 04:56:36;;;;;;;1.40;1.02;;;;;;;;;;5027013;28;20053;-46
2022/07/02 04:59:02;;;;;;;5.57;1.10;;;;;;;;;;5027127;28;20029;-45
2022/07/02 05:01:28;;;;;;;4.50;0.85;;;;;;;;;;5025220;28;20025;-45
2022/07/02 05:03:54;;;;;;;3.92;1.13;;;;;;;;;;5026927;28;20025;-48
2022/07/02 05:06:21;;;;;;;1.38;1.00;;;;;;;;;;5025937;28;20092;-46
2022/07/02 05:08:50;;;;;;;2.85;1.20;;;;;;;;;;5025031;28;20398;-46
2022/07/02 05:11:16;;;;;;;9.75;1.83;;;;;;;;;;5021682;28;20620;-43
2022/07/02 05:13:43;;;;;;;1.85;1.15;;;;;;;;;;5026049;28;20485;-43
2022/07/02 05:16:09;;;;;;;3.30;1.00;;;;;;;;;;5025741;28;20053;-43
2022/07/02 05:18:34;;;;;;;2.58;1.00;;;;;;;;;;5025426;28;20060;-44
2022/07/02 05:21:00;;;;;;;1.20;1.10;;;;;;;;;;5026300;28;20033;-43
2022/07/02 05:23:25;;;;;;;1.55;1.10;;;;;;;;;;5024096;28;20531;-44
2022/07/02 05:25:51;;;;;;;2.38;1.10;;;;;;;;;;5024080;28;20437;-45
2022/07/02 05:28:16;;;;;;;8.57;1.30;;;;;;;;;;5024988;28;20033;-45
2022/07/02 05:30:41;;;;;;;2.75;1.10;;;;;;;;;;5025636;28;20534;-43
2022/07/02 05:33:07;;;;;;;2.42;1.27;;;;;;;;;;5024477;28;20432;-44
2022/07/02 05:35:32;;;;;;;7.43;1.38;;;;;;;;;;5024705;28;20025;-47
2022/07/02 05:37:58;;;;;;;5.38;1.15;;;;;;;;;;5024265;28;20433;-44
2022/07/02 05:40:23;;;;;;;2.60;1.35;;;;;;;;;;5025132;28;20037;-47
2022/07/02 05:42:49;;;;;;;3.63;1.30;;;;;;;;;;5026772;28;20525;-46
2022/07/02 05:45:14;;;;;;;3.67;0.93;;;;;;;;;;5025996;28;20025;-48
2022/07/02 05:47:40;;;;;;;1.85;1.10;;;;;;;;;;5024892;28;20490;-48
2022/07/02 05:50:05;;;;;;;3.42;1.13;;;;;;;;;;5024383;28;20068;-44
2022/07/02 05:52:31;;;;;;;1.48;0.93;;;;;;;;;;5025213;28;20078;-46
2022/07/02 05:54:56;;;;;;;1.27;1.15;;;;;;;;;;5026273;28;20030;-46
2022/07/02 05:57:22;;;;;;;3.90;1.25;;;;;;;;;;5025423;28;20056;-49
2022/07/02 05:59:47;;;;;;;4.53;1.23;;;;;;;;;;5024135;28;20041;-47
2022/07/02 06:02:12;;;;;;;6.03;1.00;;;;;;;;;;5022655;28;20033;-43
2022/07/02 06:04:38;;;;;;;5.13;1.30;;;;;;;;;;5019585;28;20520;-43
2022/07/02 06:09:48;;;;;;;3.30;1.48;;;;;;;;;;5027344;28;20045;-44
2022/07/02 06:12:13;;;;;;;1.30;1.05;;;;;;;;;;5023976;28;20029;-46
2022/07/02 06:14:39;;;;;;;2.20;1.50;;;;;;;;;;5023107;28;20060;-48
2022/07/02 06:17:04;;;;;;;0.90;0.90;;;;;;;;;;5025194;28;20116;-47
2022/07/02 06:19:29;;;;;;;2.53;1.10;;;;;;;;;;5029162;28;20101;-48
2022/07/02 06:21:55;;;;;;;6.00;0.90;;;;;;;;;;5029706;28;20112;-46
2022/07/02 06:24:20;;;;;;;1.05;0.93;;;;;;;;;;5024136;28;20462;-47
2022/07/02 06:26:46;;;;;;;1.13;0.98;;;;;;;;;;5025674;28;20022;-47
2022/07/02 06:29:11;;;;;;;3.20;1.48;;;;;;;;;;5024719;28;20037;-49
2022/07/02 06:31:37;;;;;;;2.65;1.27;;;;;;;;;;5028866;28;20139;-46
2022/07/02 06:34:03;;;;;;;4.18;1.00;;;;;;;;;;5027657;28;20064;-45
2022/07/02 06:36:29;;;;;;;3.22;1.48;;;;;;;;;;5023745;28;20247;-43
2022/07/02 06:38:54;;;;;;;3.97;1.10;;;;;;;;;;5017901;28;20529;-46
2022/07/02 06:44:05;;;;;;;0.82;0.82;;;;;;;;;;5023477;28;20108;-44
2022/07/02 06:46:32;;;;;;;2.45;0.82;;;;;;;;;;5026642;28;20383;-45
2022/07/02 06:48:58;;;;;;;3.92;0.90;;;;;;;;;;5026428;28;20041;-49
2022/07/02 06:51:24;;;;;;;2.50;1.23;;;;;;;;;;5022752;28;20481;-46
2022/07/02 06:53:50;;;;;;;1.63;0.75;;;;;;;;;;5021541;28;20482;-43
2022/07/02 06:56:16;;;;;;;8.20;1.25;;;;;;;;;;5021999;28;20075;-44
2022/07/02 06:58:42;;;;;;;1.90;1.33;;;;;;;;;;5021875;28;20508;-47
2022/07/02 07:01:08;;;;;;;4.10;1.35;;;;;;;;;;5022979;28;20394;-46
2022/07/02 07:03:33;;;;;;;4.57;1.00;;;;;;;;;;5026213;28;20029;-48
2022/07/02 07:05:59;;;;;;;5.13;1.27;;;;;;;;;;5020533;28;20045;-42
2022/07/02 07:08:25;;;;;;;1.20;0.70;;;;;;;;;;5024923;28;20034;-42
2022/07/02 07:10:50;;;;;;;1.45;1.10;;;;;;;;;;5022834;28;20527;-43
2022/07/02 07:13:16;;;;;;;7.80;1.13;;;;;;;;;;5021343;28;20087;-41
2022/07/02 07:15:42;;;;;;;3.03;0.98;;;;;;;;;;5026772;28;20394;-43
2022/07/02 07:18:08;;;;;;;1.83;1.10;;;;;;;;;;5021881;28;20104;-43
2022/07/02 07:20:35;;;;;;;2.35;0.80;;;;;;;;;;5024744;28;20121;-41
2022/07/02 07:23:00;;;;;;;2.60;1.10;;;;;;;;;;5018924;28;20049;-42
2022/07/02 07:25:26;;;;;;;2.03;1.00;;;;;;;;;;5023731;28;20132;-43
2022/07/02 07:27:52;;;;;;;3.45;1.10;;;;;;;;;;5023651;28;20037;-42
2022/07/02 07:30:18;;;;;;;7.85;1.30;;;;;;;;;;5023393;28;20120;-42
2022/07/02 07:32:43;;;;;;;3.95;1.00;;;;;;;;;;5023836;28;20029;-42
2022/07/02 07:35:09;;;;;;;4.25;0.80;;;;;;;;;;5020534;28;20052;-42
2022/07/02 07:37:36;;;;;;;5.18;1.40;;;;;;;;;;5018277;28;20038;-43
2022/07/02 07:40:07;;;;;;;3.67;1.13;;;;;;;;;;5028445;28;20071;-43
2022/07/02 07:42:33;;;;;;;3.42;1.00;;;;;;;;;;5022084;28;20029;-42
2022/07/02 07:44:59;;;;;;;4.93;1.17;;;;;;;;;;5022622;28;20033;-43
2022/07/02 07:47:25;;;;;;;7.50;0.93;;;;;;;;;;5027662;28;20421;-43
2022/07/02 07:49:50;;;;;;;7.88;0.90;;;;;;;;;;5024310;28;20029;-43
2022/07/02 07:52:16;;;;;;;2.35;1.08;;;;;;;;;;5024804;28;20040;-45
2022/07/02 07:54:42;;;;;;;3.50;0.95;;;;;;;;;;5022524;28;20112;-43
2022/07/02 07:57:08;;;;;;;7.30;1.30;;;;;;;;;;5020723;28;21979;-42
2022/07/02 07:59:33;;;;;;;5.97;1.60;;;;;;;;;;5021519;28;20037;-43
2022/07/02 08:01:59;;;;;;;6.07;1.52;;;;;;;;;;5022536;28;20054;-43
2022/07/02 08:04:25;;;;;;;4.68;1.50;;;;;;;;;;5024449;28;20136;-42
2022/07/02 08:06:50;;;;;;;3.08;1.70;;;;;;;;;;5027144;28;20038;-42
2022/07/02 08:09:16;;;;;;;2.00;1.27;;;;;;;;;;5025506;28;20535;-42
2022/07/02 08:11:42;;;;;;;3.35;1.13;;;;;;;;;;5026057;28;20033;-42
2022/07/02 08:14:08;;;;;;;6.35;1.73;;;;;;;;;;5026045;28;20108;-42
2022/07/02 08:16:34;;;;;;;6.20;1.30;;;;;;;;;;5027938;28;20029;-43
2022/07/02 08:19:00;;;;;;;4.45;1.98;;;;;;;;;;5028861;28;20132;-43
2022/07/02 08:21:26;;;;;;;2.42;1.30;;;;;;;;;;5025930;28;20034;-42
2022/07/02 08:23:51;;;;;;;9.13;1.40;;;;;;;;;;5024053;28;20558;-44
2022/07/02 08:26:17;;;;;;;3.22;1.20;;;;;;;;;;5026415;28;20037;-43
2022/07/02 08:28:43;;;;;;;4.45;1.40;;;;;;;;;;5025715;28;20021;-43
2022/07/02 08:31:09;;;;;;;2.72;1.20;;;;;;;;;;5026992;28;20425;-42
2022/07/02 08:33:35;;;;;;;3.28;1.20;;;;;;;;;;5028557;28;20060;-42
2022/07/02 08:36:01;;;;;;;3.60;1.60;;;;;;;;;;5025932;28;20029;-43
2022/07/02 08:38:27;;;;;;;3.58;1.33;;;;;;;;;;5026410;28;20026;-42
2022/07/02 08:40:53;;;;;;;6.55;1.00;;;;;;;;;;5023961;28;20108;-42
2022/07/02 08:43:24;;;;;;;8.80;1.25;;;;;;;;;;5025395;28;20489;-43
2022/07/02 08:45:51;;;;;;;1.58;1.05;;;;;;;;;;5028084;28;20056;-43
2022/07/02 08:48:18;;;;;;;4.68;1.50;;;;;;;;;;5024971;28;20037;-42
2022/07/02 08:50:45;;;;;;;9.55;1.40;;;;;;;;;;5024860;28;20080;-43
2022/07/02 08:53:11;;;;;;;3.28;1.17;;;;;;;;;;5026749;28;20060;-43
2022/07/02 08:55:37;;;;;;;1.88;1.00;;;;;;;;;;5022873;28;21102;-42
2022/07/02 08:58:05;;;;;;;3.35;1.25;;;;;;;;;;5027027;28;20067;-42
2022/07/02 09:00:30;;;;;;;3.40;1.08;;;;;;;;;;5024343;28;20117;-43
2022/07/02 09:02:58;;;;;;;3.53;1.00;;;;;;;;;;5025689;28;20165;-42
2022/07/02 09:05:26;;;;;;;2.92;1.10;;;;;;;;;;5022329;28;20049;-46
2022/07/02 09:07:52;;;;;;;6.25;1.10;;;;;;;;;;5025775;28;20021;-44
2022/07/02 09:10:22;;;;;;;1.80;0.90;;;;;;;;;;5024731;28;20040;-42
2022/07/02 09:12:49;;;;;;;5.30;0.95;;;;;;;;;;5024097;28;20029;-43
2022/07/02 09:15:15;;;;;;;13.23;5.10;;;;;;;;;;5026467;28;20029;-46
2022/07/02 09:17:42;;;;;;;3.08;1.40;;;;;;;;;;5024367;28;20033;-42
2022/07/02 09:20:10;;;;;;;4.10;1.20;;;;;;;;;;5022661;28;20497;-42
2022/07/02 09:22:40;;;;;;;8.20;1.40;;;;;;;;;;5020229;28;20087;-43
2022/07/02 09:25:17;;;;;;;1.60;1.48;;;;;;;;;;5025430;28;20034;-43
2022/07/02 09:27:44;;;;;;;4.18;1.30;;;;;;;;;;5027235;28;20117;-46
2022/07/02 09:30:13;;;;;;;3.72;1.00;;;;;;;;;;5025863;28;20061;-43
2022/07/02 09:32:42;;;;;;;2.75;1.10;;;;;;;;;;5025497;28;20531;-43
2022/07/02 09:35:16;;;;;;;5.22;1.25;;;;;;;;;;5022648;28;20029;-42
2022/07/02 09:37:42;;;;;;;8.02;1.90;;;;;;;;;;5026499;28;20045;-43
2022/07/02 09:40:08;;;;;;;4.68;1.40;;;;;;;;;;5024300;28;20037;-43
2022/07/02 09:42:35;;;;;;;4.97;1.30;;;;;;;;;;5023868;28;20079;-43
2022/07/02 09:45:03;;;;;;;3.20;1.20;;;;;;;;;;5022838;28;20060;-43
2022/07/02 09:47:40;;;;;;;3.15;1.23;;;;;;;;;;5025032;28;20052;-42
2022/07/02 09:50:08;;;;;;;1.27;1.13;;;;;;;;;;5022964;28;20033;-43
2022/07/02 09:52:34;;;;;;;1.75;1.33;;;;;;;;;;5026366;28;20036;-41
2022/07/02 09:55:01;;;;;;;9.55;1.38;;;;;;;;;;5030318;28;20809;-44
2022/07/02 09:57:28;;;;;;;4.78;1.20;;;;;;;;;;5030361;28;20021;-43
2022/07/02 10:00:06;;;;;;;2.42;0.98;;;;;;;;;;5026893;28;20041;-42
2022/07/02 10:02:36;;;;;;;2.38;0.98;;;;;;;;;;5028042;28;20113;-45
2022/07/02 10:05:05;;;;;;;3.75;1.00;;;;;;;;;;5028427;28;20053;-43
2022/07/02 10:07:31;;;;;;;2.22;0.82;;;;;;;;;;5029663;28;20501;-42
2022/07/02 10:10:04;;;;;;;3.35;1.00;;;;;;;;;;5029596;28;20056;-44
2022/07/02 10:12:30;;;;;;;1.85;1.13;;;;;;;;;;5028263;28;20423;-43
2022/07/02 10:14:57;;;;;;;1.90;1.23;;;;;;;;;;5029198;28;20072;-43
2022/07/02 10:17:23;;;;;;;2.83;1.02;;;;;;;;;;5028145;28;20025;-43
2022/07/02 10:19:51;;;;;;;3.95;1.00;;;;;;;;;;5026569;28;20029;-43
2022/07/02 10:22:19;;;;;;;4.20;1.02;;;;;;;;;;5028674;28;20030;-43
2022/07/02 10:24:46;;;;;;;1.23;1.10;;;;;;;;;;5030231;28;20040;-43
2022/07/02 10:27:14;;;;;;;3.30;0.80;;;;;;;;;;5026214;28;20025;-45
2022/07/02 10:29:41;;;;;;;4.07;1.10;;;;;;;;;;5028350;28;20057;-43
2022/07/02 10:32:54;;;;;;;1.20;1.10;;;;;;;;;;5029358;28;20030;-42
2022/07/02 10:35:23;;;;;;;1.48;0.82;;;;;;;;;;4991321;28;20566;-45
2022/07/02 10:37:58;;;;;;;2.08;1.17;;;;;;;;;;4988767;28;20490;-42
2022/07/02 10:40:24;;;;;;;1.90;1.00;;;;;;;;;;4987066;28;20042;-44
2022/07/02 10:42:51;;;;;;;3.58;1.00;;;;;;;;;;4987418;28;20678;-43
2022/07/02 10:45:22;;;;;;;0.93;0.80;;;;;;;;;;4989545;28;20045;-44
2022/07/02 10:48:05;;;;;;;3.58;0.90;;;;;;;;;;4990497;28;20430;-43
2022/07/02 10:50:39;;;;;;;3.05;0.80;;;;;;;;;;4988641;28;20030;-44
2022/07/02 10:53:17;;;;;;;2.13;0.93;;;;;;;;;;4989660;28;20042;-42
2022/07/02 10:56:03;;;;;;;3.33;0.90;;;;;;;;;;4987716;28;20833;-42
2022/07/02 10:58:31;;;;;;;1.23;0.80;;;;;;;;;;4984076;28;20051;-42
2022/07/02 11:01:13;;;;;;;7.78;1.00;;;;;;;;;;4987721;28;20078;-43
2022/07/02 11:04:00;;;;;;;3.15;1.05;;;;;;;;;;4988894;28;20037;-48
2022/07/02 11:06:28;;;;;;;0.70;0.70;;;;;;;;;;4982236;28;20042;-42
2022/07/02 11:08:58;;;;;;;0.70;0.70;;;;;;;;;;4988408;28;20443;-45
2022/07/02 11:11:33;;;;;;;1.67;0.90;;;;;;;;;;5005637;28;20033;-43
2022/07/02 11:14:08;;;;;;;1.58;0.80;;;;;;;;;;5027078;28;20045;-43
2022/07/02 11:16:40;;;;;;;1.00;1.00;;;;;;;;;;5023237;28;20092;-42
2022/07/02 11:19:16;;;;;;;1.52;0.77;;;;;;;;;;5028619;28;20052;-43
2022/07/02 11:21:43;;;;;;;0.75;0.60;;;;;;;;;;5029527;28;20033;-42
2022/07/02 11:24:10;;;;;;;0.80;0.80;;;;;;;;;;5024389;28;20052;-44
2022/07/02 11:26:40;;;;;;;0.75;0.75;;;;;;;;;;5025296;28;20034;-42
2022/07/02 11:29:06;;;;;;;3.35;0.55;;;;;;;;;;5025923;28;20025;-42
2022/07/02 11:31:35;;;;;;;0.88;0.77;;;;;;;;;;5026846;28;20390;-44
2022/07/02 11:34:01;;;;;;;2.67;0.90;;;;;;;;;;5027055;28;20033;-42
2022/07/02 11:36:27;;;;;;;2.13;0.93;;;;;;;;;;5027616;28;20029;-42
2022/07/02 11:38:53;;;;;;;1.60;0.70;;;;;;;;;;5026430;28;20116;-45
2022/07/02 11:41:34;;;;;;;2.78;0.80;;;;;;;;;;5028146;28;20029;-42
2022/07/02 11:44:00;;;;;;;0.52;0.52;;;;;;;;;;5025220;28;20099;-42
2022/07/02 11:46:28;;;;;;;5.28;0.70;;;;;;;;;;5025035;28;20048;-43
2022/07/02 11:48:57;;;;;;;0.40;0.40;;;;;;;;;;5028605;28;20116;-42
2022/07/02 11:51:24;;;;;;;1.02;0.50;;;;;;;;;;5026878;28;20030;-42
2022/07/02 11:54:01;;;;;;;2.35;0.40;;;;;;;;;;5027660;28;20033;-42
2022/07/02 11:56:28;;;;;;;0.32;0.32;;;;;;;;;;5025222;28;20486;-42
2022/07/02 11:58:54;;;;;;;0.57;0.43;;;;;;;;;;5026876;28;20075;-42
2022/07/02 12:01:24;;;;;;;1.27;0.60;;;;;;;;;;5025123;28;20501;-44
2022/07/02 12:03:53;;;;;;;5.07;0.40;;;;;;;;;;5027303;28;20029;-42
2022/07/02 12:06:19;;;;;;;1.13;0.60;;;;;;;;;;5026780;28;20057;-42
2022/07/02 12:08:44;;;;;;;1.67;0.55;;;;;;;;;;5027186;28;20076;-42
2022/07/02 12:11:14;;;;;;;0.50;0.50;;;;;;;;;;5026459;28;20100;-45
2022/07/02 12:13:41;;;;;;;0.52;0.47;;;;;;;;;;5026535;28;20139;-42
2022/07/02 12:16:13;;;;;;;5.00;0.40;;;;;;;;;;5026449;28;20032;-43
2022/07/02 12:18:39;;;;;;;1.85;0.60;;;;;;;;;;5027634;28;20074;-43
2022/07/02 12:21:13;;;;;;;1.15;0.68;;;;;;;;;;5025440;28;20033;-44
2022/07/02 12:23:47;;;;;;;1.23;0.68;;;;;;;;;;5025338;28;20044;-42
2022/07/02 12:26:23;;;;;;;0.40;0.40;;;;;;;;;;5025270;28;20037;-42
2022/07/02 12:31:48;;;;;;;2.35;0.45;;;;;;;;;;5023114;28;20030;-43
2022/07/02 12:34:15;;;;;;;0.85;0.52;;;;;;;;;;5026403;28;20060;-42
2022/07/02 12:36:52;;;;;;;0.32;0.32;;;;;;;;;;5028048;28;20075;-44
2022/07/02 12:39:23;;;;;;;2.05;0.45;;;;;;;;;;5025856;28;20087;-42
2022/07/02 12:41:49;;;;;;;0.77;0.47;;;;;;;;;;5026834;28;20104;-42
2022/07/02 12:44:20;;;;;;;1.52;0.70;;;;;;;;;;5027101;28;20358;-43
2022/07/02 12:46:51;;;;;;;1.08;0.70;;;;;;;;;;5025468;28;20029;-43
2022/07/02 12:49:22;;;;;;;2.42;1.15;;;;;;;;;;5024945;28;20045;-41
2022/07/02 12:51:58;;;;;;;3.55;1.17;;;;;;;;;;5027123;28;20486;-43
2022/07/02 12:54:36;;;;;;;3.50;1.73;;;;;;;;;;5027523;28;20042;-43
2022/07/02 12:57:21;;;;;;;3.90;1.25;;;;;;;;;;5025704;28;20029;-43
2022/07/02 12:59:49;;;;;;;4.50;1.25;;;;;;;;;;5026978;28;20033;-43
2022/07/02 13:02:23;;;;;;;4.60;1.20;;;;;;;;;;5023293;28;20498;-42
2022/07/02 13:04:49;;;;;;;5.50;1.27;;;;;;;;;;5024803;28;20133;-43
2022/07/02 13:07:15;;;;;;;5.70;1.60;;;;;;;;;;5022116;28;20144;-43
2022/07/02 13:09:42;;;;;;;6.03;1.48;;;;;;;;;;5041359;28;20045;-43
2022/07/02 13:12:10;;;;;;;1.20;1.10;;;;;;;;;;5026288;28;20025;-42
2022/07/02 13:14:40;;;;;;;2.83;1.10;;;;;;;;;;5026134;28;20033;-42
2022/07/02 13:17:06;;;;;;;2.22;0.93;;;;;;;;;;5025577;28;20033;-44
2022/07/02 13:19:34;;;;;;;2.53;1.30;;;;;;;;;;5023994;28;20075;-42
2022/07/02 13:22:00;;;;;;;7.30;1.40;;;;;;;;;;5026549;28;20045;-42
2022/07/02 13:24:25;;;;;;;3.97;1.35;;;;;;;;;;5024658;28;20059;-43
2022/07/02 13:26:51;;;;;;;3.50;1.30;;;;;;;;;;5026654;28;20017;-43
2022/07/02 13:29:17;;;;;;;1.58;1.08;;;;;;;;;;5025434;28;20084;-42
2022/07/02 13:31:43;;;;;;;4.78;1.30;;;;;;;;;;5023943;28;20061;-44
2022/07/02 13:34:08;;;;;;;6.10;1.40;;;;;;;;;;5026153;28;20037;-43
2022/07/02 13:36:34;;;;;;;5.43;1.50;;;;;;;;;;5027556;28;20386;-43
2022/07/02 13:39:00;;;;;;;3.30;1.42;;;;;;;;;;5024576;28;20117;-42
2022/07/02 13:41:26;;;;;;;4.30;1.25;;;;;;;;;;5026733;28;20033;-43
2022/07/02 13:43:51;;;;;;;5.80;1.33;;;;;;;;;;5025386;28;20057;-42
2022/07/02 13:46:17;;;;;;;6.55;1.70;;;;;;;;;;5025021;28;20034;-43
2022/07/02 13:48:43;;;;;;;2.38;1.45;;;;;;;;;;5027709;28;20049;-41
2022/07/02 13:51:08;;;;;;;2.78;1.52;;;;;;;;;;5024633;28;20037;-43
2022/07/02 13:53:34;;;;;;;3.88;1.48;;;;;;;;;;5024372;28;20041;-43
2022/07/02 13:56:00;;;;;;;2.28;1.23;;;;;;;;;;5021448;28;20029;-43
2022/07/02 13:58:26;;;;;;;5.70;1.38;;;;;;;;;;5026009;28;20041;-42
2022/07/02 14:00:51;;;;;;;9.07;2.17;;;;;;;;;;5026129;28;20102;-42
2022/07/02 14:03:17;;;;;;;4.53;1.38;;;;;;;;;;5024830;28;20029;-41
2022/07/02 14:05:43;;;;;;;3.45;1.60;;;;;;;;;;5025700;28;20487;-43
2022/07/02 14:08:08;;;;;;;3.53;1.83;;;;;;;;;;5024585;28;20033;-42
2022/07/02 14:10:34;;;;;;;2.85;1.30;;;;;;;;;;5024172;28;20026;-43
2022/07/02 14:13:00;;;;;;;4.05;1.35;;;;;;;;;;5023784;28;20482;-42
2022/07/02 14:15:26;;;;;;;5.88;1.40;;;;;;;;;;5025448;28;20030;-42
2022/07/02 14:17:52;;;;;;;5.78;1.50;;;;;;;;;;5024871;28;20029;-42
2022/07/02 14:20:19;;;;;;;3.08;1.15;;;;;;;;;;5020670;28;20599;-43
2022/07/02 14:22:45;;;;;;;7.82;1.50;;;;;;;;;;5024259;28;20079;-43
2022/07/02 14:25:10;;;;;;;4.35;1.27;;;;;;;;;;5024271;28;20029;-43
2022/07/02 14:27:36;;;;;;;4.70;1.10;;;;;;;;;;5024978;28;20030;-43
2022/07/02 14:30:03;;;;;;;11.05;1.30;;;;;;;;;;5025334;28;20124;-42
2022/07/02 14:32:30;;;;;;;6.30;1.58;;;;;;;;;;5024112;28;20037;-43
2022/07/02 14:34:55;;;;;;;4.35;1.38;;;;;;;;;;5024105;28;20029;-46
2022/07/02 14:37:23;;;;;;;5.43;1.25;;;;;;;;;;5024299;28;20382;-42
2022/07/02 14:39:48;;;;;;;7.10;1.33;;;;;;;;;;5029040;28;20025;-42
2022/07/02 14:42:14;;;;;;;7.15;1.42;;;;;;;;;;5027641;28;20037;-43
2022/07/02 14:44:40;;;;;;;5.95;1.42;;;;;;;;;;5024170;28;20026;-43
2022/07/02 14:47:05;;;;;;;3.08;1.10;;;;;;;;;;5027722;28;20037;-42
2022/07/02 14:49:31;;;;;;;2.25;1.08;;;;;;;;;;5028143;28;20095;-42
2022/07/02 14:51:57;;;;;;;5.55;1.10;;;;;;;;;;5028752;28;20101;-42
2022/07/02 14:54:22;;;;;;;6.15;1.33;;;;;;;;;;5027462;28;20033;-42
2022/07/02 14:56:48;;;;;;;5.40;1.30;;;;;;;;;;5025942;28;20490;-42
2022/07/02 14:59:15;;;;;;;3.25;1.08;;;;;;;;;;5026129;28;20035;-43